Time;durP1;ratioP1;P1;durP2;ratioP2;P2;SDS_P1;SDS_P2;PMS_P1;PMS_P2;Temp;Humidity;BMP_temperature;BMP_pressure;BME280_temperature;BME280_humidity;BME280_pressure;Samples;Min_cycle;Max_cycle;Signal;HPM_P1;HPM_P2
2022/09/09 00:00:15;;;;;;;2.60;1.60;;;14.70;99.90;;;;;;478942;248;28537;-70
2022/09/09 00:02:15;;;;;;;5.10;1.77;;;14.70;99.90;;;;;;478890;248;28494;-70
2022/09/09 00:04:16;;;;;;;1.20;1.20;;;14.60;99.90;;;;;;478966;248;28364;-71
2022/09/09 00:06:18;;;;;;;1.63;1.53;;;14.60;99.90;;;;;;478890;247;29366;-69
2022/09/09 00:08:19;;;;;;;1.40;1.40;;;14.60;99.90;;;;;;478928;248;29188;-70
2022/09/09 00:10:20;;;;;;;1.53;1.43;;;14.60;99.90;;;;;;478962;248;29254;-70
2022/09/09 00:12:21;;;;;;;1.37;1.20;;;14.60;99.90;;;;;;478958;248;28321;-70
2022/09/09 00:14:22;;;;;;;1.40;1.30;;;14.60;99.90;;;;;;478975;248;28458;-70
2022/09/09 00:16:24;;;;;;;1.73;1.37;;;14.50;99.90;;;;;;478939;248;28324;-73
2022/09/09 00:18:25;;;;;;;1.40;1.30;;;14.50;99.90;;;;;;478956;248;28307;-70
2022/09/09 00:20:26;;;;;;;1.43;1.33;;;14.50;99.90;;;;;;478980;248;28309;-71
2022/09/09 00:22:27;;;;;;;1.53;1.43;;;14.50;99.90;;;;;;478976;248;28414;-70
2022/09/09 00:24:29;;;;;;;1.77;1.33;;;14.40;99.90;;;;;;478978;248;28515;-70
2022/09/09 00:26:30;;;;;;;1.30;1.20;;;14.40;99.90;;;;;;478917;248;28458;-74
2022/09/09 00:28:32;;;;;;;3.07;1.37;;;14.40;99.90;;;;;;478960;248;28195;-70
2022/09/09 00:30:32;;;;;;;3.23;1.40;;;14.40;99.90;;;;;;478826;248;28589;-70
2022/09/09 00:32:35;;;;;;;5.17;1.73;;;14.40;99.90;;;;;;478945;248;28935;-70
2022/09/09 00:34:35;;;;;;;2.33;1.40;;;14.40;99.90;;;;;;478869;248;29202;-69
2022/09/09 00:36:36;;;;;;;1.43;1.30;;;14.40;99.90;;;;;;478909;246;28741;-71
2022/09/09 00:38:37;;;;;;;2.30;1.37;;;14.40;99.90;;;;;;478986;248;28106;-69
2022/09/09 00:40:39;;;;;;;1.60;1.50;;;14.30;99.90;;;;;;478960;248;28458;-70
2022/09/09 00:42:40;;;;;;;1.80;1.30;;;14.30;99.90;;;;;;478952;248;28257;-69
2022/09/09 00:44:41;;;;;;;1.50;1.40;;;14.30;99.90;;;;;;478950;248;28326;-69
2022/09/09 00:46:43;;;;;;;1.77;1.30;;;14.30;99.90;;;;;;478899;248;28306;-72
2022/09/09 00:48:44;;;;;;;1.60;1.50;;;14.40;99.90;;;;;;478928;248;28363;-69
2022/09/09 00:50:45;;;;;;;1.43;1.20;;;14.40;99.90;;;;;;478948;248;28145;-69
2022/09/09 00:52:46;;;;;;;1.93;1.40;;;14.50;99.90;;;;;;478938;248;28098;-69
2022/09/09 00:54:47;;;;;;;2.50;1.50;;;14.50;99.90;;;;;;478945;248;28553;-69
2022/09/09 00:56:49;;;;;;;1.50;1.40;;;14.50;99.90;;;;;;478893;248;28823;-71
2022/09/09 00:58:50;;;;;;;1.77;1.50;;;14.50;99.90;;;;;;478949;248;29266;-71
2022/09/09 01:00:51;;;;;;;1.60;1.30;;;14.60;99.90;;;;;;478940;248;28827;-70
2022/09/09 01:02:52;;;;;;;1.90;1.30;;;14.60;99.90;;;;;;478932;248;28297;-69
2022/09/09 01:04:54;;;;;;;1.60;1.50;;;14.60;99.90;;;;;;478957;248;28342;-70
2022/09/09 01:06:55;;;;;;;1.87;1.50;;;14.60;99.90;;;;;;478822;248;28489;-74
2022/09/09 01:08:56;;;;;;;1.60;1.47;;;14.70;99.90;;;;;;478905;248;28718;-70
2022/09/09 01:10:57;;;;;;;1.50;1.30;;;14.70;99.90;;;;;;478809;248;28534;-70
2022/09/09 01:12:59;;;;;;;2.17;1.33;;;14.60;99.90;;;;;;478855;247;28086;-70
2022/09/09 01:15:00;;;;;;;1.50;1.40;;;14.60;99.90;;;;;;478924;247;28235;-71
2022/09/09 01:17:02;;;;;;;1.50;1.40;;;14.60;99.90;;;;;;478880;248;28383;-72
2022/09/09 01:19:02;;;;;;;4.23;1.47;;;14.60;99.90;;;;;;478924;248;28492;-70
2022/09/09 01:21:04;;;;;;;1.60;1.50;;;14.60;99.90;;;;;;478903;248;29288;-70
2022/09/09 01:23:05;;;;;;;1.50;1.40;;;14.50;99.90;;;;;;478902;248;29598;-70
2022/09/09 01:25:06;;;;;;;1.60;1.50;;;14.50;99.90;;;;;;478930;248;29175;-69
2022/09/09 01:27:07;;;;;;;2.73;1.50;;;14.50;99.90;;;;;;478911;248;29007;-72
2022/09/09 01:29:09;;;;;;;1.30;1.20;;;14.50;99.90;;;;;;478951;248;28301;-70
2022/09/09 01:31:10;;;;;;;2.20;1.40;;;14.50;99.90;;;;;;478962;248;28218;-69
2022/09/09 01:33:11;;;;;;;2.10;1.80;;;14.50;99.90;;;;;;478935;248;28321;-69
2022/09/09 01:35:12;;;;;;;2.03;1.40;;;14.60;99.90;;;;;;478946;248;28445;-69
2022/09/09 01:37:14;;;;;;;1.60;1.43;;;14.50;99.90;;;;;;478939;248;28346;-72
2022/09/09 01:39:15;;;;;;;1.30;1.20;;;14.50;99.90;;;;;;478927;248;28360;-69
2022/09/09 01:41:19;;;;;;;2.20;1.70;;;14.50;99.90;;;;;;478955;248;28441;-70
2022/09/09 01:43:20;;;;;;;6.10;1.70;;;14.50;99.90;;;;;;478945;248;29195;-69
2022/09/09 01:45:22;;;;;;;2.57;1.60;;;14.50;99.90;;;;;;479002;248;28524;-72
2022/09/09 01:47:23;;;;;;;2.83;1.47;;;14.40;99.90;;;;;;478919;248;28270;-69
2022/09/09 01:49:24;;;;;;;1.93;1.53;;;14.50;99.90;;;;;;478986;248;28825;-70
2022/09/09 01:51:25;;;;;;;2.57;1.50;;;14.50;99.90;;;;;;479002;248;28425;-69
2022/09/09 01:53:27;;;;;;;1.93;1.80;;;14.50;99.90;;;;;;478947;248;28531;-70
2022/09/09 01:55:28;;;;;;;1.60;1.43;;;14.40;99.90;;;;;;478980;248;28429;-71
2022/09/09 01:57:29;;;;;;;1.67;1.40;;;14.40;99.90;;;;;;478917;248;28287;-69
2022/09/09 01:59:30;;;;;;;2.10;1.57;;;14.40;99.90;;;;;;478949;248;28542;-69
2022/09/09 02:01:32;;;;;;;1.10;1.10;;;14.40;99.90;;;;;;478918;248;28720;-69
2022/09/09 02:03:36;;;;;;;1.60;1.50;;;14.40;99.90;;;;;;478921;246;28831;-69
2022/09/09 02:05:37;;;;;;;1.53;1.23;;;14.40;99.90;;;;;;478951;248;28395;-70
2022/09/09 02:07:39;;;;;;;1.67;1.33;;;14.40;99.90;;;;;;478894;248;28345;-71
2022/09/09 02:09:40;;;;;;;1.97;1.77;;;14.40;99.90;;;;;;478929;248;29177;-69
2022/09/09 02:11:41;;;;;;;2.07;1.50;;;14.40;99.90;;;;;;478946;247;29256;-69
2022/09/09 02:13:42;;;;;;;3.83;1.40;;;14.40;99.90;;;;;;478965;248;28769;-69
2022/09/09 02:15:43;;;;;;;1.87;1.50;;;14.40;99.90;;;;;;478977;248;28663;-69
2022/09/09 02:17:45;;;;;;;1.47;1.20;;;14.40;99.90;;;;;;478953;248;28415;-72
2022/09/09 02:19:46;;;;;;;5.10;1.50;;;14.40;99.90;;;;;;478976;248;28401;-71
2022/09/09 02:21:47;;;;;;;2.17;1.47;;;14.40;99.90;;;;;;478959;248;28443;-69
2022/09/09 02:23:49;;;;;;;1.37;1.27;;;14.40;99.90;;;;;;478927;248;28530;-69
2022/09/09 02:25:51;;;;;;;1.47;1.30;;;14.40;99.90;;;;;;478960;248;28440;-70
2022/09/09 02:27:51;;;;;;;1.87;1.27;;;14.30;99.90;;;;;;478854;248;28487;-71
2022/09/09 02:29:52;;;;;;;2.93;1.40;;;14.30;99.90;;;;;;478968;248;28299;-70
2022/09/09 02:31:54;;;;;;;2.33;1.47;;;14.30;99.90;;;;;;478977;248;28840;-71
2022/09/09 02:33:55;;;;;;;2.40;1.70;;;14.20;99.90;;;;;;478920;248;28801;-69
2022/09/09 02:36:01;;;;;;;1.13;1.13;;;14.20;99.90;;;;;;478954;248;28725;-69
2022/09/09 02:37:58;;;;;;;1.20;1.10;;;14.20;99.90;;;;;;478546;248;28613;-73
2022/09/09 02:39:58;;;;;;;1.50;1.40;;;14.20;99.90;;;;;;478917;248;28842;-70
2022/09/09 02:42:00;;;;;;;1.17;1.17;;;14.20;99.90;;;;;;478843;248;28227;-70
2022/09/09 02:44:01;;;;;;;1.33;1.23;;;14.20;99.90;;;;;;478933;247;28240;-69
2022/09/09 02:46:02;;;;;;;1.40;1.30;;;14.20;99.90;;;;;;478935;248;28285;-70
2022/09/09 02:48:03;;;;;;;1.73;1.30;;;14.20;99.90;;;;;;478943;248;28218;-72
2022/09/09 02:50:05;;;;;;;1.00;1.00;;;14.20;99.90;;;;;;478971;248;28438;-70
2022/09/09 02:52:06;;;;;;;2.57;1.20;;;14.20;99.90;;;;;;478958;248;28210;-70
2022/09/09 02:54:07;;;;;;;4.50;1.40;;;14.20;99.90;;;;;;478967;248;28267;-70
2022/09/09 02:56:09;;;;;;;1.03;1.03;;;14.10;99.90;;;;;;478899;248;28376;-70
2022/09/09 02:58:11;;;;;;;1.30;1.20;;;14.00;99.90;;;;;;478956;247;28235;-72
2022/09/09 03:00:11;;;;;;;1.30;1.20;;;14.00;99.90;;;;;;478891;248;28862;-70
2022/09/09 03:02:12;;;;;;;1.20;1.10;;;14.00;99.90;;;;;;478973;248;28715;-71
2022/09/09 03:04:13;;;;;;;1.27;1.10;;;14.00;99.90;;;;;;478892;246;28966;-69
2022/09/09 03:06:15;;;;;;;2.50;1.67;;;13.90;99.90;;;;;;478864;248;28225;-69
2022/09/09 03:08:17;;;;;;;1.10;1.00;;;13.90;99.90;;;;;;478881;248;28337;-72
2022/09/09 03:10:17;;;;;;;2.80;1.30;;;13.90;99.90;;;;;;478969;246;28201;-70
2022/09/09 03:12:18;;;;;;;1.53;1.43;;;13.90;99.90;;;;;;478974;248;28217;-71
2022/09/09 03:14:21;;;;;;;1.50;1.40;;;13.80;99.90;;;;;;478963;248;28242;-70
2022/09/09 03:16:21;;;;;;;1.50;1.40;;;13.80;99.90;;;;;;478827;248;28436;-69
2022/09/09 03:18:23;;;;;;;1.30;1.30;;;13.80;99.90;;;;;;479011;248;28226;-73
2022/09/09 03:20:24;;;;;;;1.70;1.50;;;13.80;99.90;;;;;;478957;248;28357;-70
2022/09/09 03:22:25;;;;;;;2.10;1.20;;;13.80;99.90;;;;;;478924;248;28228;-72
2022/09/09 03:24:26;;;;;;;1.33;1.10;;;13.70;99.90;;;;;;478947;248;28543;-69
2022/09/09 03:26:27;;;;;;;1.40;1.20;;;13.70;99.90;;;;;;478828;248;29018;-69
2022/09/09 03:28:30;;;;;;;3.33;1.60;;;13.70;99.90;;;;;;478977;248;28719;-73
2022/09/09 03:30:30;;;;;;;1.93;1.33;;;13.70;99.90;;;;;;478846;248;28807;-69
2022/09/09 03:32:31;;;;;;;1.30;1.20;;;13.70;99.90;;;;;;478957;248;28393;-70
2022/09/09 03:34:32;;;;;;;1.20;1.20;;;13.70;99.90;;;;;;478965;248;28173;-69
2022/09/09 03:36:34;;;;;;;1.30;1.20;;;13.60;99.90;;;;;;478875;246;28187;-69
2022/09/09 03:38:35;;;;;;;1.70;1.23;;;13.60;99.90;;;;;;478997;248;28130;-72
2022/09/09 03:40:36;;;;;;;1.27;1.17;;;13.60;99.90;;;;;;478975;248;28073;-70
2022/09/09 03:42:37;;;;;;;1.20;1.20;;;13.50;99.90;;;;;;478888;248;28353;-70
2022/09/09 03:44:39;;;;;;;2.30;1.17;;;13.50;99.90;;;;;;478953;248;28199;-69
2022/09/09 03:46:40;;;;;;;2.67;1.50;;;13.60;99.90;;;;;;478706;248;28133;-69
2022/09/09 03:48:41;;;;;;;2.03;1.30;;;13.60;99.90;;;;;;478965;248;28132;-73
2022/09/09 03:50:42;;;;;;;4.10;1.17;;;13.70;99.90;;;;;;478956;248;28549;-69
2022/09/09 03:52:44;;;;;;;1.27;1.17;;;13.70;99.90;;;;;;478944;248;28607;-70
2022/09/09 03:54:45;;;;;;;2.20;1.50;;;13.70;99.90;;;;;;478944;248;28716;-70
2022/09/09 03:56:46;;;;;;;5.70;1.47;;;13.70;99.90;;;;;;478883;248;28330;-69
2022/09/09 03:58:47;;;;;;;1.10;1.10;;;13.70;99.90;;;;;;478979;248;28252;-72
2022/09/09 04:00:49;;;;;;;1.30;1.20;;;13.70;99.90;;;;;;478970;248;28080;-69
2022/09/09 04:02:54;;;;;;;1.40;1.30;;;13.70;99.90;;;;;;478946;247;28121;-70
2022/09/09 04:04:51;;;;;;;1.43;1.33;;;13.70;99.90;;;;;;478650;248;28121;-69
2022/09/09 04:06:52;;;;;;;1.47;1.37;;;13.70;99.90;;;;;;478853;248;28834;-70
2022/09/09 04:08:54;;;;;;;3.33;1.50;;;13.70;99.90;;;;;;478987;248;28122;-71
2022/09/09 04:10:57;;;;;;;1.53;1.43;;;13.70;99.90;;;;;;478908;248;28120;-69
2022/09/09 04:12:56;;;;;;;1.60;1.50;;;13.70;99.90;;;;;;478806;248;28577;-69
2022/09/09 04:14:57;;;;;;;1.67;1.30;;;13.70;99.90;;;;;;478906;248;28909;-69
2022/09/09 04:16:59;;;;;;;1.27;1.20;;;13.70;99.90;;;;;;478850;248;28573;-70
2022/09/09 04:19:01;;;;;;;2.10;1.20;;;13.80;99.90;;;;;;478947;248;28722;-73
2022/09/09 04:21:01;;;;;;;1.47;1.37;;;13.80;99.90;;;;;;478920;248;28267;-70
2022/09/09 04:23:03;;;;;;;4.83;1.40;;;13.80;99.90;;;;;;478949;248;28223;-70
2022/09/09 04:25:04;;;;;;;1.67;1.30;;;13.80;99.90;;;;;;478873;248;28087;-69
2022/09/09 04:27:05;;;;;;;1.40;1.30;;;13.90;99.90;;;;;;478846;248;28212;-70
2022/09/09 04:29:07;;;;;;;1.80;1.30;;;13.80;99.90;;;;;;478965;248;28160;-69
2022/09/09 04:31:07;;;;;;;1.40;1.30;;;13.80;99.90;;;;;;478914;248;28150;-69
2022/09/09 04:33:09;;;;;;;2.33;1.50;;;13.90;99.90;;;;;;478916;248;28340;-69
2022/09/09 04:35:10;;;;;;;1.47;1.30;;;13.90;99.90;;;;;;478945;247;28113;-70
2022/09/09 04:37:11;;;;;;;3.17;1.80;;;14.00;99.90;;;;;;478911;248;28274;-69
2022/09/09 04:39:12;;;;;;;1.03;1.00;;;14.00;99.90;;;;;;478974;248;28794;-71
2022/09/09 04:41:14;;;;;;;3.70;1.80;;;14.00;99.90;;;;;;478964;246;28592;-69
2022/09/09 04:43:15;;;;;;;2.50;1.50;;;14.10;99.90;;;;;;478887;248;28760;-71
2022/09/09 04:45:16;;;;;;;1.90;1.37;;;14.20;99.90;;;;;;478973;248;28121;-72
2022/09/09 04:47:17;;;;;;;2.20;1.40;;;14.20;99.90;;;;;;478904;247;28301;-69
2022/09/09 04:49:19;;;;;;;3.10;1.50;;;14.20;99.90;;;;;;479001;248;28133;-71
2022/09/09 04:51:20;;;;;;;3.40;1.57;;;14.30;99.90;;;;;;478959;247;28363;-69
2022/09/09 04:53:21;;;;;;;3.13;1.47;;;14.30;99.90;;;;;;478863;248;28453;-69
2022/09/09 04:55:22;;;;;;;6.23;1.60;;;14.30;99.90;;;;;;479004;248;28558;-73
2022/09/09 04:57:24;;;;;;;3.40;1.40;;;14.30;99.90;;;;;;478891;248;28328;-70
2022/09/09 04:59:25;;;;;;;1.63;1.20;;;14.40;99.90;;;;;;478974;248;28339;-69
2022/09/09 05:01:26;;;;;;;3.43;1.30;;;14.30;99.90;;;;;;478946;248;28454;-69
2022/09/09 05:03:28;;;;;;;1.90;1.30;;;14.40;99.90;;;;;;478946;248;29030;-70
2022/09/09 05:05:29;;;;;;;3.03;1.40;;;14.40;99.90;;;;;;478925;248;29295;-72
2022/09/09 05:07:31;;;;;;;1.63;1.30;;;14.30;99.90;;;;;;478903;248;28877;-70
2022/09/09 05:09:31;;;;;;;1.43;1.30;;;14.40;99.90;;;;;;478885;248;28805;-70
2022/09/09 05:11:35;;;;;;;1.50;1.40;;;14.40;99.90;;;;;;478935;248;28411;-69
2022/09/09 05:13:34;;;;;;;2.13;1.30;;;14.40;99.90;;;;;;478750;248;28441;-70
2022/09/09 05:15:36;;;;;;;1.97;1.40;;;14.30;99.90;;;;;;478955;248;28247;-72
2022/09/09 05:17:36;;;;;;;1.10;1.10;;;14.40;99.90;;;;;;478893;248;28325;-70
2022/09/09 05:19:37;;;;;;;2.43;1.20;;;14.40;99.90;;;;;;478943;248;28461;-71
2022/09/09 05:21:39;;;;;;;2.30;1.67;;;14.40;99.90;;;;;;478927;248;28407;-70
2022/09/09 05:23:40;;;;;;;2.07;1.23;;;14.30;99.90;;;;;;478954;248;28450;-70
2022/09/09 05:25:42;;;;;;;1.23;1.13;;;14.20;99.90;;;;;;478961;248;28757;-71
2022/09/09 05:27:42;;;;;;;1.20;1.10;;;14.20;99.90;;;;;;478885;248;28709;-69
2022/09/09 05:29:44;;;;;;;1.40;1.30;;;14.20;99.90;;;;;;478937;248;29234;-70
2022/09/09 05:31:45;;;;;;;3.20;1.33;;;14.30;99.90;;;;;;478939;248;28945;-70
2022/09/09 05:33:46;;;;;;;1.30;1.20;;;14.40;99.90;;;;;;478919;248;28895;-72
2022/09/09 05:35:48;;;;;;;1.40;1.30;;;14.40;99.90;;;;;;478986;248;28558;-72
2022/09/09 05:37:49;;;;;;;1.27;1.20;;;14.40;99.90;;;;;;478874;248;28418;-70
2022/09/09 05:39:50;;;;;;;3.23;1.40;;;14.50;99.90;;;;;;478956;248;28746;-70
2022/09/09 05:41:51;;;;;;;10.33;1.90;;;14.50;99.90;;;;;;478831;248;28417;-69
2022/09/09 05:43:52;;;;;;;1.73;1.60;;;14.50;99.90;;;;;;478935;248;28550;-69
2022/09/09 05:45:54;;;;;;;3.10;1.50;;;14.60;99.90;;;;;;478945;248;28761;-70
2022/09/09 05:47:55;;;;;;;5.17;1.80;;;14.60;99.90;;;;;;478907;248;28336;-70
2022/09/09 05:49:56;;;;;;;3.43;1.87;;;14.60;99.90;;;;;;478972;248;28465;-71
2022/09/09 05:51:57;;;;;;;2.00;1.70;;;14.60;99.90;;;;;;478975;248;28819;-69
2022/09/09 05:53:59;;;;;;;3.67;1.90;;;14.50;99.90;;;;;;478942;248;29263;-71
2022/09/09 05:56:00;;;;;;;5.83;1.70;;;14.50;99.90;;;;;;478983;248;28897;-73
2022/09/09 05:58:01;;;;;;;2.90;1.60;;;14.60;99.90;;;;;;478965;248;29172;-69
2022/09/09 06:00:02;;;;;;;2.40;1.63;;;14.60;99.90;;;;;;478973;248;28733;-71
2022/09/09 06:02:04;;;;;;;3.70;1.73;;;14.70;99.90;;;;;;478971;248;28711;-70
2022/09/09 06:04:05;;;;;;;3.10;1.50;;;14.80;99.90;;;;;;478952;248;28751;-71
2022/09/09 06:06:06;;;;;;;3.27;1.30;;;14.90;99.90;;;;;;478935;248;28832;-75
2022/09/09 06:08:07;;;;;;;3.30;1.63;;;15.10;99.90;;;;;;478986;248;28732;-70
2022/09/09 06:10:09;;;;;;;2.60;1.90;;;15.10;99.90;;;;;;478997;248;28771;-71
2022/09/09 06:12:10;;;;;;;3.50;1.43;;;15.20;99.90;;;;;;478989;248;28713;-69
2022/09/09 06:14:11;;;;;;;1.70;1.60;;;15.20;99.90;;;;;;478973;248;28824;-70
2022/09/09 06:16:12;;;;;;;2.13;1.37;;;15.20;99.90;;;;;;478930;248;28757;-73
2022/09/09 06:18:14;;;;;;;1.80;1.50;;;15.20;99.90;;;;;;478973;248;29271;-69
2022/09/09 06:20:15;;;;;;;1.50;1.40;;;15.30;99.90;;;;;;478987;248;29318;-70
2022/09/09 06:22:16;;;;;;;2.10;1.60;;;15.30;99.90;;;;;;478984;248;29170;-70
2022/09/09 06:24:19;;;;;;;3.30;1.50;;;15.20;99.90;;;;;;478934;248;28754;-70
2022/09/09 06:26:19;;;;;;;2.43;1.63;;;15.30;99.90;;;;;;478856;248;28830;-72
2022/09/09 06:28:20;;;;;;;2.00;1.60;;;15.40;99.90;;;;;;478988;246;28720;-70
2022/09/09 06:30:21;;;;;;;2.70;2.00;;;15.60;99.90;;;;;;478964;248;28769;-71
2022/09/09 06:32:22;;;;;;;2.10;1.97;;;15.60;99.90;;;;;;478947;248;28700;-69
2022/09/09 06:34:24;;;;;;;4.30;1.73;;;15.60;99.90;;;;;;478955;248;28765;-70
2022/09/09 06:36:25;;;;;;;4.27;2.10;;;15.60;99.90;;;;;;478944;246;29217;-73
2022/09/09 06:38:27;;;;;;;1.60;1.50;;;15.40;99.90;;;;;;478971;248;28729;-70
2022/09/09 06:40:27;;;;;;;3.07;1.90;;;15.30;99.90;;;;;;478940;248;28749;-70
2022/09/09 06:42:29;;;;;;;2.00;1.43;;;15.20;99.90;;;;;;478954;248;29187;-70
2022/09/09 06:44:31;;;;;;;2.30;1.80;;;15.30;99.90;;;;;;478961;246;29177;-71
2022/09/09 06:46:32;;;;;;;3.50;1.70;;;15.40;99.90;;;;;;478866;248;29238;-72
2022/09/09 06:48:32;;;;;;;4.30;1.70;;;15.40;99.90;;;;;;478889;248;28825;-70
2022/09/09 06:50:34;;;;;;;2.33;1.60;;;15.40;99.90;;;;;;478965;248;28783;-71
2022/09/09 06:52:35;;;;;;;4.43;1.83;;;15.30;99.90;;;;;;478951;248;28745;-70
2022/09/09 06:54:37;;;;;;;1.70;1.60;;;15.40;99.90;;;;;;478958;248;28823;-70
2022/09/09 06:56:40;;;;;;;1.70;1.60;;;15.60;99.90;;;;;;478914;248;29227;-75
2022/09/09 06:58:42;;;;;;;3.17;1.77;;;15.70;99.90;;;;;;478839;248;28710;-70
2022/09/09 07:00:40;;;;;;;2.90;1.50;;;15.80;99.90;;;;;;478712;248;28759;-71
2022/09/09 07:02:41;;;;;;;2.47;1.97;;;15.80;99.90;;;;;;478930;248;28793;-70
2022/09/09 07:04:43;;;;;;;1.73;1.60;;;15.80;99.90;;;;;;478956;248;28781;-70
2022/09/09 07:06:44;;;;;;;1.70;1.60;;;15.90;99.90;;;;;;478923;248;29408;-73
2022/09/09 07:08:45;;;;;;;2.50;1.73;;;16.00;99.90;;;;;;478957;248;29238;-70
2022/09/09 07:10:47;;;;;;;3.00;1.50;;;16.10;99.90;;;;;;478966;246;29232;-70
2022/09/09 07:12:47;;;;;;;3.40;1.73;;;16.20;99.90;;;;;;478969;248;29177;-70
2022/09/09 07:14:49;;;;;;;2.23;1.83;;;16.30;99.90;;;;;;478982;248;28743;-70
2022/09/09 07:16:50;;;;;;;2.60;1.90;;;16.40;99.90;;;;;;478896;248;28777;-70
2022/09/09 07:18:51;;;;;;;2.57;1.90;;;16.40;99.90;;;;;;478979;247;28711;-70
2022/09/09 07:20:52;;;;;;;2.70;1.57;;;16.40;99.90;;;;;;478989;248;28825;-71
2022/09/09 07:22:54;;;;;;;3.10;1.70;;;16.30;99.90;;;;;;478990;248;28771;-70
2022/09/09 07:24:55;;;;;;;3.47;1.53;;;16.30;99.90;;;;;;478998;248;28754;-70
2022/09/09 07:26:57;;;;;;;3.80;2.07;;;16.10;99.90;;;;;;478910;248;28839;-72
2022/09/09 07:28:58;;;;;;;2.83;1.70;;;16.00;99.90;;;;;;478993;248;28725;-70
2022/09/09 07:30:59;;;;;;;2.37;1.60;;;15.90;99.90;;;;;;478985;248;28819;-70
2022/09/09 07:33:00;;;;;;;3.30;1.63;;;15.90;99.90;;;;;;478965;248;29277;-69
2022/09/09 07:35:01;;;;;;;2.17;1.63;;;15.90;99.90;;;;;;478979;248;29224;-70
2022/09/09 07:37:02;;;;;;;3.97;1.50;;;15.80;99.90;;;;;;478899;248;31025;-70
2022/09/09 07:39:04;;;;;;;2.17;1.60;;;15.80;99.90;;;;;;478979;248;28773;-70
2022/09/09 07:41:05;;;;;;;2.40;1.60;;;15.90;99.90;;;;;;478976;248;28824;-72
2022/09/09 07:43:06;;;;;;;5.93;1.70;;;15.90;99.90;;;;;;478946;248;28803;-69
2022/09/09 07:45:07;;;;;;;2.00;1.53;;;16.00;99.90;;;;;;478949;248;28754;-70
2022/09/09 07:47:09;;;;;;;4.57;1.50;;;16.10;99.90;;;;;;478871;248;28787;-69
2022/09/09 07:49:10;;;;;;;4.50;1.60;;;16.30;99.90;;;;;;478975;246;28733;-70
2022/09/09 07:51:11;;;;;;;3.43;1.80;;;16.40;99.90;;;;;;478981;248;28799;-72
2022/09/09 07:53:13;;;;;;;8.40;1.97;;;16.40;99.90;;;;;;478968;248;28726;-70
2022/09/09 07:55:14;;;;;;;4.30;1.90;;;16.40;99.90;;;;;;478939;248;28763;-70
2022/09/09 07:57:16;;;;;;;8.03;2.10;;;16.30;99.90;;;;;;478887;248;29313;-69
2022/09/09 07:59:16;;;;;;;4.30;1.90;;;16.30;99.90;;;;;;478917;248;29195;-70
2022/09/09 08:01:18;;;;;;;2.20;1.60;;;16.40;99.90;;;;;;478978;248;29234;-72
2022/09/09 08:03:19;;;;;;;2.83;1.60;;;16.40;99.90;;;;;;478957;246;28710;-69
2022/09/09 08:05:20;;;;;;;3.70;2.03;;;16.40;99.90;;;;;;478937;248;28753;-70
2022/09/09 08:07:22;;;;;;;1.93;1.70;;;16.40;99.90;;;;;;478881;248;28723;-69
2022/09/09 08:09:25;;;;;;;3.53;1.73;;;16.40;99.90;;;;;;478947;248;28809;-70
2022/09/09 08:11:24;;;;;;;5.80;2.00;;;16.30;99.90;;;;;;478802;248;28748;-71
2022/09/09 08:13:26;;;;;;;6.40;2.20;;;16.40;99.90;;;;;;478960;248;28764;-70
2022/09/09 08:15:26;;;;;;;5.37;2.27;;;16.30;99.90;;;;;;478866;248;29219;-70
2022/09/09 08:17:28;;;;;;;3.73;1.70;;;16.30;99.90;;;;;;478894;247;28723;-70
2022/09/09 08:19:29;;;;;;;4.73;1.60;;;16.40;99.90;;;;;;478950;248;28818;-70
2022/09/09 08:21:31;;;;;;;3.33;1.83;;;16.50;99.90;;;;;;478950;248;29208;-72
2022/09/09 08:23:31;;;;;;;4.47;2.00;;;16.60;99.90;;;;;;478906;248;29260;-70
2022/09/09 08:25:34;;;;;;;3.60;1.90;;;16.70;99.90;;;;;;478961;248;29281;-70
2022/09/09 08:27:34;;;;;;;3.50;1.80;;;16.70;99.90;;;;;;478765;248;29264;-70
2022/09/09 08:29:37;;;;;;;4.10;2.03;;;16.70;99.90;;;;;;478920;248;28793;-71
2022/09/09 08:31:37;;;;;;;3.60;1.90;;;16.60;99.90;;;;;;478805;248;28828;-73
2022/09/09 08:33:38;;;;;;;5.70;1.63;;;16.70;99.90;;;;;;478917;248;28791;-70
2022/09/09 08:35:39;;;;;;;4.90;1.87;;;16.80;99.90;;;;;;478954;248;28747;-70
2022/09/09 08:37:40;;;;;;;3.67;2.33;;;17.00;99.90;;;;;;478870;246;28728;-70
2022/09/09 08:39:41;;;;;;;3.70;2.00;;;17.10;99.90;;;;;;478967;248;28774;-70
2022/09/09 08:41:43;;;;;;;4.93;1.83;;;16.90;99.90;;;;;;478981;248;28759;-72
2022/09/09 08:43:44;;;;;;;4.93;2.30;;;16.90;99.90;;;;;;478981;248;28717;-70
2022/09/09 08:45:45;;;;;;;2.73;1.93;;;16.80;99.90;;;;;;478983;248;29325;-70
2022/09/09 08:47:46;;;;;;;4.23;1.90;;;16.80;99.90;;;;;;478909;248;29932;-70
2022/09/09 08:49:49;;;;;;;5.00;2.57;;;16.80;99.90;;;;;;478981;248;29188;-70
2022/09/09 08:51:49;;;;;;;4.83;2.00;;;16.70;99.90;;;;;;478896;248;29315;-71
2022/09/09 08:53:50;;;;;;;5.43;2.00;;;16.90;99.90;;;;;;478946;248;28712;-70
2022/09/09 08:55:52;;;;;;;5.97;2.00;;;17.00;99.90;;;;;;478955;248;28759;-70
2022/09/09 08:57:53;;;;;;;3.07;2.00;;;17.00;99.90;;;;;;478861;248;28734;-69
2022/09/09 08:59:55;;;;;;;2.40;1.83;;;16.90;99.90;;;;;;478940;248;28774;-70
2022/09/09 09:01:55;;;;;;;2.83;2.17;;;16.90;99.90;;;;;;478898;248;28754;-72
2022/09/09 09:03:56;;;;;;;3.80;2.17;;;17.00;99.90;;;;;;478946;248;28713;-69
2022/09/09 09:05:58;;;;;;;4.13;2.07;;;17.00;99.90;;;;;;478953;248;28858;-70
2022/09/09 09:07:59;;;;;;;3.73;2.13;;;17.10;99.90;;;;;;478886;248;28720;-70
2022/09/09 09:10:00;;;;;;;2.50;2.30;;;16.80;99.90;;;;;;478975;248;28713;-70
2022/09/09 09:12:02;;;;;;;3.40;1.83;;;16.80;99.90;;;;;;478976;248;29225;-72
2022/09/09 09:14:03;;;;;;;2.40;2.20;;;16.90;99.90;;;;;;478947;248;29209;-70
2022/09/09 09:16:04;;;;;;;2.87;1.80;;;17.20;99.90;;;;;;478909;248;29292;-76
2022/09/09 09:18:05;;;;;;;6.53;1.93;;;17.40;99.90;;;;;;478939;248;29156;-70
2022/09/09 09:20:06;;;;;;;3.97;1.90;;;17.70;99.90;;;;;;478958;248;28708;-70
2022/09/09 09:22:08;;;;;;;3.93;1.80;;;17.80;99.90;;;;;;478966;248;28849;-72
2022/09/09 09:24:09;;;;;;;8.23;2.13;;;17.70;99.90;;;;;;478943;248;28724;-70
2022/09/09 09:26:13;;;;;;;9.13;2.33;;;17.70;99.90;;;;;;478887;248;28811;-70
2022/09/09 09:28:17;;;;;;;3.03;1.40;;;17.70;99.90;;;;;;478942;248;29254;-70
2022/09/09 09:30:16;;;;;;;3.70;1.63;;;17.80;99.90;;;;;;478830;248;28866;-73
2022/09/09 09:32:17;;;;;;;4.53;2.30;;;17.90;99.90;;;;;;478921;248;28719;-70
2022/09/09 09:34:18;;;;;;;2.40;1.97;;;17.70;99.90;;;;;;478942;248;28744;-71
2022/09/09 09:36:19;;;;;;;5.07;2.00;;;17.80;99.90;;;;;;478905;248;28869;-70
2022/09/09 09:38:22;;;;;;;3.73;2.10;;;17.70;99.90;;;;;;478922;248;28824;-70
2022/09/09 09:40:22;;;;;;;2.33;1.93;;;17.70;99.90;;;;;;478909;248;29079;-73
2022/09/09 09:42:23;;;;;;;4.43;1.93;;;17.80;99.90;;;;;;478818;248;28818;-69
2022/09/09 09:44:24;;;;;;;6.87;2.23;;;17.90;99.90;;;;;;478939;248;28759;-70
2022/09/09 09:46:26;;;;;;;3.90;2.03;;;17.90;99.90;;;;;;478891;248;30294;-70
2022/09/09 09:48:27;;;;;;;5.23;2.00;;;17.80;99.90;;;;;;478944;248;29342;-70
2022/09/09 09:50:28;;;;;;;2.70;1.67;;;17.80;99.90;;;;;;478973;248;29330;-73
2022/09/09 09:52:29;;;;;;;3.90;1.60;;;17.80;99.90;;;;;;478942;248;28795;-70
2022/09/09 09:54:31;;;;;;;3.33;1.80;;;17.80;99.90;;;;;;478953;248;28829;-70
2022/09/09 09:56:32;;;;;;;2.70;2.00;;;17.90;99.90;;;;;;478862;248;28893;-70
2022/09/09 09:58:33;;;;;;;4.43;2.00;;;17.90;99.90;;;;;;478541;248;28731;-70
2022/09/09 10:00:37;;;;;;;3.90;2.27;;;18.00;99.90;;;;;;478346;248;28748;-73
2022/09/09 10:02:39;;;;;;;2.37;1.60;;;18.10;99.90;;;;;;478863;248;28744;-72
2022/09/09 10:04:41;;;;;;;3.53;1.90;;;18.00;99.90;;;;;;478943;248;28714;-70
2022/09/09 10:06:41;;;;;;;4.00;1.90;;;18.00;99.90;;;;;;478856;248;28874;-71
2022/09/09 10:08:42;;;;;;;3.80;1.67;;;17.90;99.90;;;;;;478908;248;28862;-72
2022/09/09 10:10:44;;;;;;;4.40;1.90;;;17.80;99.90;;;;;;478962;248;28735;-70
2022/09/09 10:12:45;;;;;;;3.60;1.97;;;17.70;99.90;;;;;;478951;248;28840;-71
2022/09/09 10:14:46;;;;;;;2.43;1.80;;;17.70;99.90;;;;;;478939;248;29171;-70
2022/09/09 10:16:48;;;;;;;5.07;1.80;;;17.70;99.90;;;;;;478904;248;29241;-71
2022/09/09 10:18:49;;;;;;;2.67;1.53;;;17.70;99.90;;;;;;478942;248;29410;-70
2022/09/09 10:20:50;;;;;;;7.13;2.07;;;17.70;99.90;;;;;;478963;248;28713;-70
2022/09/09 10:22:51;;;;;;;4.37;1.90;;;17.90;99.90;;;;;;478951;246;28820;-71
2022/09/09 10:24:52;;;;;;;3.83;1.90;;;18.30;99.90;;;;;;478966;247;28703;-70
2022/09/09 10:26:54;;;;;;;3.53;1.80;;;18.50;99.90;;;;;;478916;248;28758;-70
2022/09/09 10:28:55;;;;;;;3.07;2.10;;;18.60;99.90;;;;;;478960;248;28748;-69
2022/09/09 10:30:56;;;;;;;6.93;2.10;;;18.60;99.90;;;;;;478992;248;28720;-70